Time;durP1;ratioP1;P1;durP2;ratioP2;P2;SDS_P1;SDS_P2;PMS_P1;PMS_P2;Temp;Humidity;BMP_temperature;BMP_pressure;BME280_temperature;BME280_humidity;BME280_pressure;Samples;Min_cycle;Max_cycle;Signal;HPM_P1;HPM_P2
2022/04/29 00:01:32;;;;;;;7.33;5.80;;;;;;;;;;5034035;28;20409;-64
2022/04/29 00:03:59;;;;;;;7.40;6.20;;;;;;;;;;5033917;28;20766;-66
2022/04/29 00:06:26;;;;;;;7.10;6.20;;;;;;;;;;5033668;28;20477;-73
2022/04/29 00:08:52;;;;;;;6.50;5.80;;;;;;;;;;5033940;28;20458;-65
2022/04/29 00:11:18;;;;;;;6.77;6.07;;;;;;;;;;5033778;28;20476;-64
2022/04/29 00:13:45;;;;;;;6.87;6.00;;;;;;;;;;5032569;28;20419;-64
2022/04/29 00:16:11;;;;;;;8.60;6.00;;;;;;;;;;5033665;28;20458;-63
2022/04/29 00:18:37;;;;;;;7.70;6.43;;;;;;;;;;5033720;28;20899;-63
2022/04/29 00:21:04;;;;;;;12.80;6.80;;;;;;;;;;5033562;28;20503;-63
2022/04/29 00:23:30;;;;;;;7.20;6.50;;;;;;;;;;5033596;28;20445;-75
2022/04/29 00:25:56;;;;;;;6.67;6.07;;;;;;;;;;5033694;28;20463;-69
2022/04/29 00:28:23;;;;;;;10.80;7.47;;;;;;;;;;5033627;28;20407;-72
2022/04/29 00:30:49;;;;;;;7.00;6.30;;;;;;;;;;5033476;28;20405;-68
2022/04/29 00:33:15;;;;;;;8.93;7.10;;;;;;;;;;5033466;28;20415;-67
2022/04/29 00:35:41;;;;;;;8.47;7.17;;;;;;;;;;5033035;28;20391;-67
2022/04/29 00:38:07;;;;;;;8.70;6.03;;;;;;;;;;5033359;28;20753;-64
2022/04/29 00:40:33;;;;;;;8.30;6.33;;;;;;;;;;5033259;28;20463;-67
2022/04/29 00:42:59;;;;;;;9.50;7.07;;;;;;;;;;5033417;28;20548;-64
2022/04/29 00:45:25;;;;;;;8.13;5.90;;;;;;;;;;5033415;28;20417;-75
2022/04/29 00:47:52;;;;;;;8.50;6.80;;;;;;;;;;5033311;28;20405;-64
2022/04/29 00:50:20;;;;;;;7.73;6.83;;;;;;;;;;5033203;28;20565;-70
2022/04/29 00:52:48;;;;;;;7.30;6.50;;;;;;;;;;5033378;28;20411;-75
2022/04/29 00:55:15;;;;;;;7.00;6.30;;;;;;;;;;5033306;28;20460;-64
2022/04/29 00:57:43;;;;;;;8.53;6.63;;;;;;;;;;5033018;28;20418;-64
2022/04/29 01:00:11;;;;;;;7.73;6.70;;;;;;;;;;5033165;28;20877;-65
2022/04/29 01:02:41;;;;;;;8.80;7.07;;;;;;;;;;5033124;28;20422;-64
2022/04/29 01:05:11;;;;;;;8.40;7.07;;;;;;;;;;5033156;28;20465;-69
2022/04/29 01:07:38;;;;;;;7.53;6.70;;;;;;;;;;5033020;28;20472;-75
2022/04/29 01:10:06;;;;;;;7.80;6.97;;;;;;;;;;5032939;28;21014;-65
2022/04/29 01:12:33;;;;;;;9.17;6.90;;;;;;;;;;5033062;28;20789;-68
2022/04/29 01:15:03;;;;;;;7.37;6.27;;;;;;;;;;5033046;28;20456;-71
2022/04/29 01:17:30;;;;;;;8.20;7.03;;;;;;;;;;5032944;28;20980;-74
2022/04/29 01:19:56;;;;;;;8.50;6.90;;;;;;;;;;5031748;28;20411;-65
2022/04/29 01:22:22;;;;;;;12.03;8.03;;;;;;;;;;5033050;28;20417;-74
2022/04/29 01:24:50;;;;;;;9.73;7.63;;;;;;;;;;5033003;28;20407;-71
2022/04/29 01:27:16;;;;;;;9.07;7.27;;;;;;;;;;5032934;28;20410;-64
2022/04/29 01:29:43;;;;;;;7.63;6.93;;;;;;;;;;5032799;28;20473;-63
2022/04/29 01:32:09;;;;;;;8.87;7.30;;;;;;;;;;5033030;28;20437;-67
2022/04/29 01:34:36;;;;;;;7.60;6.50;;;;;;;;;;5032838;28;20450;-63
2022/04/29 01:37:02;;;;;;;7.57;6.60;;;;;;;;;;5032804;28;20403;-63
2022/04/29 01:39:28;;;;;;;9.87;7.23;;;;;;;;;;5032690;28;20929;-67
2022/04/29 01:41:54;;;;;;;8.73;6.97;;;;;;;;;;5032882;28;20464;-68
2022/04/29 01:44:20;;;;;;;8.00;6.40;;;;;;;;;;5031631;28;20422;-71
2022/04/29 01:46:46;;;;;;;9.50;6.57;;;;;;;;;;5033609;28;20967;-74
2022/04/29 01:49:12;;;;;;;6.97;6.27;;;;;;;;;;5036535;28;20474;-63
2022/04/29 01:51:39;;;;;;;8.47;6.73;;;;;;;;;;5036632;28;20414;-68
2022/04/29 01:54:09;;;;;;;9.53;7.13;;;;;;;;;;5036341;28;20432;-69
2022/04/29 01:56:36;;;;;;;7.33;6.50;;;;;;;;;;5036377;28;20496;-63
2022/04/29 01:59:03;;;;;;;9.93;6.70;;;;;;;;;;5036354;28;20406;-63
2022/04/29 02:01:29;;;;;;;9.23;7.50;;;;;;;;;;5036343;28;20886;-62
2022/04/29 02:03:55;;;;;;;8.43;6.93;;;;;;;;;;5036350;28;20406;-63
2022/04/29 02:06:22;;;;;;;11.57;6.90;;;;;;;;;;5036066;28;20418;-63
2022/04/29 02:08:48;;;;;;;7.87;6.90;;;;;;;;;;5036161;28;20519;-63
2022/04/29 02:11:17;;;;;;;10.50;7.80;;;;;;;;;;5036038;28;20415;-63
2022/04/29 02:13:43;;;;;;;8.40;7.37;;;;;;;;;;5036167;28;20402;-66
2022/04/29 02:16:09;;;;;;;11.83;7.00;;;;;;;;;;5036120;28;20412;-66
2022/04/29 02:18:36;;;;;;;8.70;6.73;;;;;;;;;;5035952;28;20402;-62
2022/04/29 02:21:02;;;;;;;8.10;7.20;;;;;;;;;;5035837;28;20429;-63
2022/04/29 02:23:28;;;;;;;8.47;6.87;;;;;;;;;;5035893;28;20434;-63
2022/04/29 02:25:55;;;;;;;8.20;7.20;;;;;;;;;;5035934;28;20467;-64
2022/04/29 02:28:21;;;;;;;7.90;7.10;;;;;;;;;;5035717;28;20407;-63
2022/04/29 02:30:47;;;;;;;11.13;7.90;;;;;;;;;;5035758;28;20427;-63
2022/04/29 02:33:13;;;;;;;9.17;7.70;;;;;;;;;;5035825;28;20402;-64
2022/04/29 02:35:39;;;;;;;8.17;7.30;;;;;;;;;;5034027;28;20804;-65
2022/04/29 02:38:05;;;;;;;10.27;8.07;;;;;;;;;;5035563;28;20469;-63
2022/04/29 02:40:32;;;;;;;8.67;6.80;;;;;;;;;;5035564;28;20406;-63
2022/04/29 02:42:57;;;;;;;10.17;7.50;;;;;;;;;;5035639;28;20405;-63
2022/04/29 02:45:24;;;;;;;8.27;7.20;;;;;;;;;;5035530;28;20410;-63
2022/04/29 02:47:50;;;;;;;8.87;7.73;;;;;;;;;;5035500;28;20402;-64
2022/04/29 02:50:16;;;;;;;9.57;7.90;;;;;;;;;;5035345;28;20469;-63
2022/04/29 02:52:42;;;;;;;10.60;6.83;;;;;;;;;;5035482;28;20407;-63
2022/04/29 02:55:08;;;;;;;8.97;7.53;;;;;;;;;;5035101;28;20414;-66
2022/04/29 02:57:34;;;;;;;10.60;8.20;;;;;;;;;;5035097;28;20410;-63
2022/04/29 03:00:00;;;;;;;15.30;8.70;;;;;;;;;;5035287;28;20432;-63
2022/04/29 03:02:27;;;;;;;9.63;8.13;;;;;;;;;;5034005;28;20925;-63
2022/04/29 03:04:53;;;;;;;8.97;7.80;;;;;;;;;;5035216;28;20418;-66
2022/04/29 03:07:19;;;;;;;9.10;7.67;;;;;;;;;;5034910;28;20458;-64
2022/04/29 03:09:47;;;;;;;8.90;7.63;;;;;;;;;;5034973;28;20476;-63
2022/04/29 03:12:14;;;;;;;11.53;7.80;;;;;;;;;;5035020;28;20405;-63
2022/04/29 03:14:40;;;;;;;9.17;7.80;;;;;;;;;;5034903;28;20410;-63
2022/04/29 03:18:17;;;;;;;7.93;7.13;;;;;;;;;;5034894;28;20410;-63
2022/04/29 03:19:52;;;;;;;10.47;8.20;;;;;;;;;;5034729;28;20427;-63
2022/04/29 03:22:18;;;;;;;14.50;8.50;;;;;;;;;;5034952;28;20410;-63
2022/04/29 03:24:44;;;;;;;10.17;7.97;;;;;;;;;;5034875;28;20913;-62
2022/04/29 03:27:10;;;;;;;10.70;7.43;;;;;;;;;;5034780;28;20407;-63
2022/04/29 03:29:37;;;;;;;7.67;6.83;;;;;;;;;;5034617;28;20973;-63
2022/04/29 03:32:03;;;;;;;10.60;7.87;;;;;;;;;;5034727;28;21047;-64
2022/04/29 03:34:29;;;;;;;9.57;7.17;;;;;;;;;;5033340;28;20782;-64
2022/04/29 03:36:55;;;;;;;14.73;8.77;;;;;;;;;;5034570;28;20434;-66
2022/04/29 03:39:21;;;;;;;10.33;7.83;;;;;;;;;;5034434;28;20519;-64
2022/04/29 03:41:47;;;;;;;8.80;7.50;;;;;;;;;;5034547;28;20422;-65
2022/04/29 03:44:13;;;;;;;9.10;8.00;;;;;;;;;;5034496;28;20406;-63
2022/04/29 03:46:39;;;;;;;12.87;8.80;;;;;;;;;;5033116;28;20418;-62
2022/04/29 03:51:50;;;;;;;9.43;8.03;;;;;;;;;;5034308;28;20540;-62
2022/04/29 03:54:16;;;;;;;12.33;8.37;;;;;;;;;;5034248;28;20882;-63
2022/04/29 03:56:42;;;;;;;9.23;8.17;;;;;;;;;;5034064;28;20430;-63
2022/04/29 03:59:09;;;;;;;10.17;7.60;;;;;;;;;;5034056;28;20395;-62
2022/04/29 04:01:35;;;;;;;11.27;8.00;;;;;;;;;;5034121;28;20410;-63
2022/04/29 04:04:03;;;;;;;9.03;7.80;;;;;;;;;;5034108;28;20407;-62
2022/04/29 04:09:14;;;;;;;10.33;7.90;;;;;;;;;;5033161;28;20979;-64
2022/04/29 04:11:41;;;;;;;13.83;8.40;;;;;;;;;;5033813;28;20434;-63
2022/04/29 04:14:08;;;;;;;12.17;9.03;;;;;;;;;;5033858;28;20438;-72
2022/04/29 04:16:34;;;;;;;10.47;8.70;;;;;;;;;;5033741;28;20435;-63
2022/04/29 04:19:00;;;;;;;9.30;8.30;;;;;;;;;;5033810;28;20410;-65
2022/04/29 04:21:26;;;;;;;11.80;8.77;;;;;;;;;;5033703;28;20425;-65
2022/04/29 04:23:53;;;;;;;11.70;10.13;;;;;;;;;;5033749;28;20495;-66
2022/04/29 04:26:19;;;;;;;8.60;7.50;;;;;;;;;;5033568;28;20415;-63
2022/04/29 04:28:45;;;;;;;9.63;8.63;;;;;;;;;;5033666;28;20892;-64
2022/04/29 04:31:11;;;;;;;13.37;8.70;;;;;;;;;;5033473;28;20418;-64
2022/04/29 04:33:37;;;;;;;9.07;8.17;;;;;;;;;;5033412;28;20410;-65
2022/04/29 04:36:06;;;;;;;13.43;7.73;;;;;;;;;;5033394;28;20444;-62
2022/04/29 04:38:33;;;;;;;11.43;9.10;;;;;;;;;;5036514;28;20458;-62
2022/04/29 04:40:59;;;;;;;9.20;8.30;;;;;;;;;;5048317;28;20437;-65
2022/04/29 04:43:27;;;;;;;10.17;8.93;;;;;;;;;;5049635;28;20438;-65
2022/04/29 04:45:53;;;;;;;9.20;8.27;;;;;;;;;;5039945;28;20441;-68
2022/04/29 04:48:19;;;;;;;10.40;8.77;;;;;;;;;;5033183;28;20434;-69
2022/04/29 04:50:46;;;;;;;11.50;9.00;;;;;;;;;;5033161;28;20539;-65
2022/04/29 04:53:12;;;;;;;9.77;8.40;;;;;;;;;;5033324;28;20418;-64
2022/04/29 04:55:38;;;;;;;11.53;8.70;;;;;;;;;;5033093;28;20914;-64
2022/04/29 04:58:05;;;;;;;12.13;8.67;;;;;;;;;;5033259;28;20485;-68
2022/04/29 05:00:31;;;;;;;12.67;8.70;;;;;;;;;;5033210;28;20421;-65
2022/04/29 05:02:57;;;;;;;16.13;9.30;;;;;;;;;;5033088;28;20406;-67
2022/04/29 05:05:23;;;;;;;10.27;9.20;;;;;;;;;;5033109;28;20411;-67
2022/04/29 05:07:49;;;;;;;11.67;9.13;;;;;;;;;;5032924;28;20528;-65
2022/04/29 05:10:15;;;;;;;10.93;9.17;;;;;;;;;;5032987;28;20461;-66
2022/04/29 05:12:42;;;;;;;10.57;9.17;;;;;;;;;;5033035;28;20399;-65
2022/04/29 05:15:09;;;;;;;17.83;9.93;;;;;;;;;;5032874;28;20412;-66
2022/04/29 05:17:35;;;;;;;11.90;9.67;;;;;;;;;;5033106;28;20504;-66
2022/04/29 05:20:02;;;;;;;12.90;9.00;;;;;;;;;;5033032;28;20410;-63
2022/04/29 05:22:29;;;;;;;10.00;8.97;;;;;;;;;;5036777;28;20402;-63
2022/04/29 05:24:55;;;;;;;12.70;9.33;;;;;;;;;;5036938;28;20828;-67
2022/04/29 05:27:21;;;;;;;14.70;11.03;;;;;;;;;;5036835;28;20434;-72
2022/04/29 05:29:47;;;;;;;14.13;10.13;;;;;;;;;;5036809;28;20469;-65
2022/04/29 05:32:14;;;;;;;11.73;9.67;;;;;;;;;;5040205;28;20429;-65
2022/04/29 05:34:40;;;;;;;14.57;10.20;;;;;;;;;;5039118;28;20443;-64
2022/04/29 05:37:06;;;;;;;11.70;9.60;;;;;;;;;;5042792;28;20433;-62
2022/04/29 05:42:18;;;;;;;13.50;9.80;;;;;;;;;;5048566;28;20978;-63
2022/04/29 05:44:45;;;;;;;11.20;9.47;;;;;;;;;;5036789;28;20448;-65
2022/04/29 05:47:11;;;;;;;10.70;9.60;;;;;;;;;;5046004;28;20464;-67
2022/04/29 05:49:38;;;;;;;12.87;10.27;;;;;;;;;;5056374;28;20501;-64
2022/04/29 05:52:04;;;;;;;12.60;10.47;;;;;;;;;;5044451;28;20442;-63
2022/04/29 05:54:31;;;;;;;12.50;9.97;;;;;;;;;;5036379;28;20409;-71
2022/04/29 05:56:57;;;;;;;11.77;9.40;;;;;;;;;;5039500;28;20429;-63
2022/04/29 05:59:23;;;;;;;11.37;10.10;;;;;;;;;;5056180;28;20409;-67
2022/04/29 06:01:49;;;;;;;11.27;9.90;;;;;;;;;;5048968;28;20470;-63
2022/04/29 06:04:16;;;;;;;10.73;9.60;;;;;;;;;;5042810;28;20418;-63
2022/04/29 06:06:42;;;;;;;10.50;8.97;;;;;;;;;;5041126;28;20469;-66
2022/04/29 06:09:08;;;;;;;11.50;9.60;;;;;;;;;;5055495;28;20464;-67
2022/04/29 06:11:34;;;;;;;15.13;9.27;;;;;;;;;;5045336;28;20528;-63
2022/04/29 06:14:00;;;;;;;13.40;10.07;;;;;;;;;;5035620;28;20437;-63
2022/04/29 06:16:26;;;;;;;12.87;10.70;;;;;;;;;;5041300;28;20470;-68
2022/04/29 06:18:52;;;;;;;14.23;11.17;;;;;;;;;;5034891;28;20430;-66
2022/04/29 06:21:19;;;;;;;12.13;10.60;;;;;;;;;;5034764;28;20406;-65
2022/04/29 06:23:46;;;;;;;13.63;10.97;;;;;;;;;;5035969;28;20413;-70
2022/04/29 06:26:12;;;;;;;16.30;11.50;;;;;;;;;;5035605;28;20402;-68
2022/04/29 06:28:39;;;;;;;15.00;12.57;;;;;;;;;;5035501;28;20437;-71
2022/04/29 06:31:05;;;;;;;18.70;11.50;;;;;;;;;;5035799;28;20429;-68
2022/04/29 06:33:31;;;;;;;16.37;11.50;;;;;;;;;;5034167;28;20410;-67
2022/04/29 06:35:58;;;;;;;15.13;11.57;;;;;;;;;;5034354;28;20510;-69
2022/04/29 06:38:24;;;;;;;13.57;11.30;;;;;;;;;;5035492;28;20427;-68
2022/04/29 06:40:51;;;;;;;18.63;12.10;;;;;;;;;;5035514;28;20414;-71
2022/04/29 06:43:17;;;;;;;15.77;11.40;;;;;;;;;;5034994;28;20407;-66
2022/04/29 06:45:43;;;;;;;13.83;10.90;;;;;;;;;;5034336;28;20422;-64
2022/04/29 06:48:09;;;;;;;19.00;12.10;;;;;;;;;;5037070;28;20919;-64
2022/04/29 06:50:35;;;;;;;14.23;11.90;;;;;;;;;;5055142;28;20469;-63
2022/04/29 06:53:01;;;;;;;19.77;13.20;;;;;;;;;;5055369;28;20563;-65
2022/04/29 06:55:27;;;;;;;20.10;13.53;;;;;;;;;;5055038;28;20421;-63
2022/04/29 06:57:53;;;;;;;18.13;13.10;;;;;;;;;;5055212;28;20425;-63
2022/04/29 07:00:20;;;;;;;21.30;14.13;;;;;;;;;;5055225;28;20531;-62
2022/04/29 07:02:46;;;;;;;20.90;12.77;;;;;;;;;;5055123;28;20417;-62
2022/04/29 07:05:13;;;;;;;18.63;12.33;;;;;;;;;;5041520;28;20410;-63
2022/04/29 07:07:39;;;;;;;15.77;12.90;;;;;;;;;;5034894;28;20813;-63
2022/04/29 07:10:06;;;;;;;18.60;13.47;;;;;;;;;;5034931;28;20901;-67
2022/04/29 07:12:39;;;;;;;23.07;13.00;;;;;;;;;;5034916;28;20422;-67
2022/04/29 07:15:05;;;;;;;21.80;14.60;;;;;;;;;;5034794;28;20406;-66
2022/04/29 07:17:31;;;;;;;16.77;13.50;;;;;;;;;;5034781;28;20493;-69
2022/04/29 07:19:59;;;;;;;15.13;12.50;;;;;;;;;;5034797;28;20505;-66
2022/04/29 07:22:25;;;;;;;15.97;13.00;;;;;;;;;;5034723;28;20409;-72
2022/04/29 07:24:51;;;;;;;19.83;13.97;;;;;;;;;;5034753;28;20426;-66
2022/04/29 07:27:17;;;;;;;23.60;13.60;;;;;;;;;;5033469;28;20421;-70
2022/04/29 07:29:43;;;;;;;20.00;13.23;;;;;;;;;;5034432;28;20476;-65
2022/04/29 07:32:09;;;;;;;18.07;12.10;;;;;;;;;;5034569;28;20488;-68
2022/04/29 07:42:49;;;;;;;18.47;13.27;;;;;;;;;;5034652;28;20518;-70
2022/04/29 07:45:15;;;;;;;14.67;12.47;;;;;;;;;;5033384;28;20901;-69
2022/04/29 07:47:41;;;;;;;18.60;12.30;;;;;;;;;;5051177;28;20413;-71
2022/04/29 07:50:08;;;;;;;18.20;13.37;;;;;;;;;;5052820;28;20504;-71
2022/04/29 07:52:34;;;;;;;16.07;12.50;;;;;;;;;;5054031;28;20409;-64
2022/04/29 07:55:00;;;;;;;18.63;13.30;;;;;;;;;;5054042;28;20452;-68
2022/04/29 07:57:26;;;;;;;18.83;13.00;;;;;;;;;;5054109;28;20410;-68
2022/04/29 07:59:52;;;;;;;16.07;12.40;;;;;;;;;;5054042;28;20409;-63
2022/04/29 08:02:18;;;;;;;16.80;12.73;;;;;;;;;;5045926;28;20428;-68
2022/04/29 08:04:44;;;;;;;16.17;12.30;;;;;;;;;;5044202;28;20427;-64
2022/04/29 08:07:23;;;;;;;16.67;12.43;;;;;;;;;;5115930;27;20353;-67
2022/04/29 08:09:49;;;;;;;16.57;12.23;;;;;;;;;;5099081;28;20419;-68
2022/04/29 08:12:15;;;;;;;16.63;11.80;;;;;;;;;;5111104;28;20403;-62
2022/04/29 08:14:41;;;;;;;15.77;12.50;;;;;;;;;;5110817;28;20399;-62
2022/04/29 08:17:07;;;;;;;18.47;11.40;;;;;;;;;;5110360;28;20395;-62
2022/04/29 08:19:33;;;;;;;18.53;11.70;;;;;;;;;;5110655;28;20402;-63
2022/04/29 08:22:01;;;;;;;15.90;11.37;;;;;;;;;;5110771;28;20418;-63
2022/04/29 08:24:27;;;;;;;20.93;12.70;;;;;;;;;;5110825;28;20403;-63
2022/04/29 08:26:53;;;;;;;22.37;12.23;;;;;;;;;;5110679;28;20463;-62
2022/04/29 08:29:20;;;;;;;18.27;12.40;;;;;;;;;;5110610;28;20423;-62
2022/04/29 08:31:48;;;;;;;17.83;12.03;;;;;;;;;;5110580;28;20882;-63
2022/04/29 08:34:17;;;;;;;16.80;11.60;;;;;;;;;;5092741;28;20737;-63
2022/04/29 08:36:43;;;;;;;16.07;12.30;;;;;;;;;;5110274;28;20419;-62
2022/04/29 08:39:09;;;;;;;14.13;10.77;;;;;;;;;;5110481;28;20465;-64
2022/04/29 08:41:38;;;;;;;16.23;9.97;;;;;;;;;;5110488;28;20414;-64
2022/04/29 08:44:08;;;;;;;11.30;10.20;;;;;;;;;;5110474;28;20449;-64
2022/04/29 08:46:34;;;;;;;13.80;8.97;;;;;;;;;;5091927;28;20520;-65
2022/04/29 08:49:01;;;;;;;10.90;8.47;;;;;;;;;;5110314;28;20407;-65
2022/04/29 08:51:27;;;;;;;12.17;9.17;;;;;;;;;;5110297;28;20403;-66
2022/04/29 08:53:53;;;;;;;11.97;8.97;;;;;;;;;;5091985;28;20418;-66
2022/04/29 08:59:05;;;;;;;11.53;8.67;;;;;;;;;;5110379;28;20908;-69
2022/04/29 09:01:31;;;;;;;11.17;8.70;;;;;;;;;;5110135;28;20449;-64
2022/04/29 09:03:57;;;;;;;13.80;8.53;;;;;;;;;;5110059;28;20403;-64
2022/04/29 09:06:23;;;;;;;8.50;7.50;;;;;;;;;;5097108;28;20475;-65
2022/04/29 09:08:50;;;;;;;11.40;8.47;;;;;;;;;;5071392;28;20481;-63
2022/04/29 09:11:23;;;;;;;10.33;8.60;;;;;;;;;;5089438;28;20484;-63
2022/04/29 09:13:49;;;;;;;10.30;8.27;;;;;;;;;;5089177;28;20408;-63
2022/04/29 09:16:15;;;;;;;12.23;8.03;;;;;;;;;;5089227;28;20766;-64
2022/04/29 09:18:46;;;;;;;9.40;7.60;;;;;;;;;;5057717;28;20405;-65
2022/04/29 09:21:12;;;;;;;14.27;8.60;;;;;;;;;;5075888;28;20764;-64
2022/04/29 09:23:47;;;;;;;9.30;8.30;;;;;;;;;;5075796;28;20744;-62
2022/04/29 09:26:27;;;;;;;8.30;7.43;;;;;;;;;;5075671;28;20463;-64
2022/04/29 09:28:53;;;;;;;9.43;7.27;;;;;;;;;;5057701;28;20452;-69
2022/04/29 09:31:19;;;;;;;7.00;6.20;;;;;;;;;;5075610;28;20763;-64
2022/04/29 09:33:55;;;;;;;8.00;6.13;;;;;;;;;;5075567;28;20413;-64
2022/04/29 09:36:26;;;;;;;8.47;7.50;;;;;;;;;;5057417;28;20915;-63
2022/04/29 09:41:38;;;;;;;8.80;7.90;;;;;;;;;;5075733;28;20851;-64
2022/04/29 09:44:04;;;;;;;8.53;7.20;;;;;;;;;;5075429;28;20413;-64
2022/04/29 09:46:30;;;;;;;8.67;7.80;;;;;;;;;;5057335;28;20992;-68
2022/04/29 09:49:02;;;;;;;13.03;6.83;;;;;;;;;;5074895;28;20404;-64
2022/04/29 09:51:45;;;;;;;8.53;6.87;;;;;;;;;;5075258;28;20482;-64
2022/04/29 09:54:11;;;;;;;9.00;7.60;;;;;;;;;;5075113;28;20425;-63
2022/04/29 09:56:38;;;;;;;9.00;7.37;;;;;;;;;;5075067;28;20951;-65
2022/04/29 09:59:04;;;;;;;9.00;7.10;;;;;;;;;;5075035;28;20417;-64
2022/04/29 10:01:30;;;;;;;7.10;6.30;;;;;;;;;;5075212;28;20405;-64
2022/04/29 10:03:56;;;;;;;8.90;6.70;;;;;;;;;;5074921;28;20416;-64
2022/04/29 10:06:23;;;;;;;12.27;7.10;;;;;;;;;;5074686;28;20488;-64
2022/04/29 10:08:50;;;;;;;7.60;6.60;;;;;;;;;;5074801;28;20449;-64
2022/04/29 10:11:18;;;;;;;7.73;6.93;;;;;;;;;;5074853;28;20416;-64
2022/04/29 10:13:45;;;;;;;6.30;5.70;;;;;;;;;;5074772;28;20412;-65
2022/04/29 10:16:15;;;;;;;7.60;6.50;;;;;;;;;;5074491;28;20409;-66
2022/04/29 10:21:32;;;;;;;7.53;6.40;;;;;;;;;;5074797;28;20508;-63
2022/04/29 10:23:59;;;;;;;6.10;5.50;;;;;;;;;;5074641;28;20437;-68
2022/04/29 10:26:25;;;;;;;5.57;5.07;;;;;;;;;;5074361;28;20981;-64
2022/04/29 10:28:52;;;;;;;5.73;5.23;;;;;;;;;;5073389;28;20421;-63
2022/04/29 10:31:22;;;;;;;5.80;4.83;;;;;;;;;;5074445;28;20405;-68
2022/04/29 10:33:48;;;;;;;5.10;4.47;;;;;;;;;;5074244;28;20416;-66
2022/04/29 10:36:14;;;;;;;5.17;4.67;;;;;;;;;;5056280;28;20415;-64
2022/04/29 10:38:43;;;;;;;6.13;5.20;;;;;;;;;;5056272;28;20448;-66
2022/04/29 10:41:15;;;;;;;5.53;5.00;;;;;;;;;;5074306;28;20464;-67
2022/04/29 10:43:50;;;;;;;4.50;4.20;;;;;;;;;;5074208;28;20404;-63
2022/04/29 10:46:19;;;;;;;5.63;4.80;;;;;;;;;;5074110;28;20467;-68
2022/04/29 10:48:46;;;;;;;4.80;4.40;;;;;;;;;;5073869;28;20409;-65
2022/04/29 10:51:27;;;;;;;4.73;4.20;;;;;;;;;;5073993;28;20427;-67
2022/04/29 10:53:55;;;;;;;4.33;3.90;;;;;;;;;;5073800;28;20405;-64
2022/04/29 10:56:27;;;;;;;4.80;4.40;;;;;;;;;;5073710;28;20420;-65
2022/04/29 10:59:05;;;;;;;5.20;4.70;;;;;;;;;;5073767;28;20401;-66
2022/04/29 11:01:33;;;;;;;4.53;4.13;;;;;;;;;;5073730;28;20435;-64
2022/04/29 11:04:04;;;;;;;4.93;4.43;;;;;;;;;;5073673;28;20484;-66
2022/04/29 11:06:37;;;;;;;5.73;5.03;;;;;;;;;;5073310;28;20549;-66
2022/04/29 11:09:23;;;;;;;6.90;4.67;;;;;;;;;;5073580;28;20756;-64
2022/04/29 11:11:50;;;;;;;6.17;4.40;;;;;;;;;;5073624;28;20443;-67
2022/04/29 11:14:16;;;;;;;4.60;4.20;;;;;;;;;;5073425;28;20432;-67
2022/04/29 11:16:56;;;;;;;5.90;5.17;;;;;;;;;;5073303;28;20440;-68
2022/04/29 11:19:28;;;;;;;5.13;4.73;;;;;;;;;;5073443;28;20405;-68
2022/04/29 11:24:47;;;;;;;6.90;5.27;;;;;;;;;;5073683;28;20450;-67
2022/04/29 11:27:13;;;;;;;5.77;4.70;;;;;;;;;;5073135;28;20508;-66
2022/04/29 11:29:46;;;;;;;4.80;4.43;;;;;;;;;;5073303;28;20419;-68
2022/04/29 11:32:12;;;;;;;5.87;4.47;;;;;;;;;;5073339;28;20404;-69
2022/04/29 11:35:00;;;;;;;5.60;5.10;;;;;;;;;;5073104;28;20439;-67
2022/04/29 11:37:27;;;;;;;5.03;4.50;;;;;;;;;;5073028;28;20508;-67
2022/04/29 11:39:55;;;;;;;6.37;4.27;;;;;;;;;;5072793;28;20411;-65
2022/04/29 11:42:21;;;;;;;5.27;4.77;;;;;;;;;;5073096;28;20404;-68
2022/04/29 11:44:49;;;;;;;5.20;4.70;;;;;;;;;;5072909;28;20420;-68
2022/04/29 11:47:22;;;;;;;6.40;4.90;;;;;;;;;;5073025;28;20544;-67
2022/04/29 11:49:48;;;;;;;5.40;4.90;;;;;;;;;;5072959;28;20905;-67
2022/04/29 11:52:25;;;;;;;5.20;4.70;;;;;;;;;;5073042;28;20452;-67
2022/04/29 11:54:51;;;;;;;4.97;4.57;;;;;;;;;;5072930;28;20408;-66
2022/04/29 11:57:17;;;;;;;4.80;4.40;;;;;;;;;;5073091;28;20440;-69
2022/04/29 11:59:44;;;;;;;5.33;4.93;;;;;;;;;;5072954;28;21258;-67
2022/04/29 12:02:11;;;;;;;5.30;4.90;;;;;;;;;;5072980;28;20440;-68
2022/04/29 12:04:37;;;;;;;6.83;5.00;;;;;;;;;;5073053;28;20446;-67
2022/04/29 12:07:05;;;;;;;4.83;4.43;;;;;;;;;;5086569;28;20816;-68
2022/04/29 12:09:34;;;;;;;5.30;4.90;;;;;;;;;;5092973;28;20911;-64
2022/04/29 12:12:01;;;;;;;4.53;4.23;;;;;;;;;;5092968;28;20556;-65
2022/04/29 12:14:27;;;;;;;5.47;4.80;;;;;;;;;;5092876;28;20498;-65
2022/04/29 12:16:54;;;;;;;7.40;5.30;;;;;;;;;;5093061;28;20412;-65
2022/04/29 12:19:23;;;;;;;5.83;5.27;;;;;;;;;;5092741;28;20939;-67
2022/04/29 12:21:56;;;;;;;5.77;5.33;;;;;;;;;;5092926;28;20410;-67
2022/04/29 12:24:22;;;;;;;5.80;5.30;;;;;;;;;;5092808;28;20505;-68
2022/04/29 12:27:21;;;;;;;5.87;5.27;;;;;;;;;;5092667;28;20605;-68
2022/04/29 12:34:48;;;;;;;5.43;4.93;;;;;;;;;;5058975;28;20758;-67
2022/04/29 12:35:19;;;;;;;6.17;5.57;;;;;;;;;;5092817;28;20456;-68
2022/04/29 12:37:51;;;;;;;5.07;4.37;;;;;;;;;;5092669;28;20432;-67
2022/04/29 12:40:26;;;;;;;5.03;4.63;;;;;;;;;;5092712;28;20412;-69
2022/04/29 12:42:52;;;;;;;7.33;6.37;;;;;;;;;;5091603;28;20407;-67
2022/04/29 12:45:24;;;;;;;5.20;4.77;;;;;;;;;;5092695;28;20423;-68
2022/04/29 12:47:53;;;;;;;5.83;5.20;;;;;;;;;;5092794;28;20424;-68
2022/04/29 12:50:31;;;;;;;5.90;5.30;;;;;;;;;;5092645;28;20898;-65
2022/04/29 12:53:00;;;;;;;5.00;4.50;;;;;;;;;;5094419;28;20905;-66
2022/04/29 12:55:34;;;;;;;5.50;4.90;;;;;;;;;;5096410;28;20510;-67
2022/04/29 12:58:12;;;;;;;5.07;4.67;;;;;;;;;;5096359;28;20403;-69
2022/04/29 13:00:39;;;;;;;7.10;4.97;;;;;;;;;;5096432;28;20419;-68
2022/04/29 13:03:09;;;;;;;5.67;5.17;;;;;;;;;;5096313;28;20898;-69
2022/04/29 13:05:37;;;;;;;5.40;5.00;;;;;;;;;;5090439;28;20472;-67
2022/04/29 13:08:04;;;;;;;4.90;4.50;;;;;;;;;;5075834;28;20448;-68
2022/04/29 13:10:30;;;;;;;5.53;5.03;;;;;;;;;;5057782;28;20826;-67
2022/04/29 13:12:57;;;;;;;5.27;4.77;;;;;;;;;;5075953;28;20817;-66
2022/04/29 13:15:23;;;;;;;6.20;4.87;;;;;;;;;;5075866;28;20413;-69
2022/04/29 13:17:50;;;;;;;5.03;4.53;;;;;;;;;;5075835;28;20420;-69
2022/04/29 13:20:16;;;;;;;5.40;5.00;;;;;;;;;;5075591;28;20405;-68
2022/04/29 13:22:42;;;;;;;8.77;4.83;;;;;;;;;;5075820;28;20439;-64
2022/04/29 13:25:09;;;;;;;5.00;4.70;;;;;;;;;;5075765;28;20880;-68
2022/04/29 13:27:35;;;;;;;5.03;4.63;;;;;;;;;;5075842;28;20392;-69
2022/04/29 13:30:05;;;;;;;5.67;5.27;;;;;;;;;;5075603;28;20405;-68
2022/04/29 13:32:31;;;;;;;5.10;4.60;;;;;;;;;;5075644;28;20400;-67
2022/04/29 13:34:57;;;;;;;5.10;4.70;;;;;;;;;;5057458;28;20906;-68
2022/04/29 13:37:24;;;;;;;5.60;4.77;;;;;;;;;;5075454;28;20931;-65
2022/04/29 13:39:50;;;;;;;5.43;4.90;;;;;;;;;;5075447;28;20499;-70
2022/04/29 13:42:16;;;;;;;6.83;5.90;;;;;;;;;;5075379;28;20469;-68
2022/04/29 13:44:43;;;;;;;5.60;5.10;;;;;;;;;;5075395;28;20401;-67
2022/04/29 13:47:09;;;;;;;5.27;4.83;;;;;;;;;;5075195;28;20490;-66
2022/04/29 13:49:35;;;;;;;5.70;5.20;;;;;;;;;;5075012;28;20906;-65
2022/04/29 13:53:07;;;;;;;5.43;4.80;;;;;;;;;;5075170;28;20401;-65
2022/04/29 13:54:47;;;;;;;6.13;4.80;;;;;;;;;;5074792;28;20425;-66
2022/04/29 13:57:13;;;;;;;6.00;4.70;;;;;;;;;;5075053;28;20427;-64
2022/04/29 13:59:39;;;;;;;5.73;5.27;;;;;;;;;;5074993;28;20415;-63
2022/04/29 14:02:06;;;;;;;5.57;5.10;;;;;;;;;;5074960;28;20443;-68
2022/04/29 14:04:32;;;;;;;5.13;4.63;;;;;;;;;;5074975;28;20401;-66
2022/04/29 14:06:58;;;;;;;4.97;4.57;;;;;;;;;;5074715;28;20487;-68
2022/04/29 14:09:24;;;;;;;5.77;5.27;;;;;;;;;;5074865;28;20454;-69
2022/04/29 14:11:50;;;;;;;6.27;4.80;;;;;;;;;;5074871;28;20511;-67
2022/04/29 14:14:16;;;;;;;5.17;4.67;;;;;;;;;;5074819;28;20419;-67
2022/04/29 14:16:42;;;;;;;5.67;5.13;;;;;;;;;;5074691;28;20421;-68
2022/04/29 14:19:08;;;;;;;6.27;5.77;;;;;;;;;;5074665;28;20427;-68
2022/04/29 14:21:34;;;;;;;5.53;5.13;;;;;;;;;;5074631;28;20982;-66
2022/04/29 14:24:00;;;;;;;11.47;5.77;;;;;;;;;;5074689;28;20481;-65
2022/04/29 14:26:26;;;;;;;5.47;4.97;;;;;;;;;;5074477;28;20947;-69
2022/04/29 14:28:52;;;;;;;7.10;4.40;;;;;;;;;;5074525;28;20405;-69
2022/04/29 14:31:18;;;;;;;5.73;5.20;;;;;;;;;;5056550;28;20416;-65
2022/04/29 14:33:45;;;;;;;5.67;5.27;;;;;;;;;;5074420;28;20417;-68
2022/04/29 14:36:11;;;;;;;5.67;5.20;;;;;;;;;;5074332;28;20451;-66
2022/04/29 14:38:38;;;;;;;6.00;5.40;;;;;;;;;;5074148;28;20907;-68
2022/04/29 14:41:04;;;;;;;7.00;6.30;;;;;;;;;;5074254;28;20429;-68
2022/04/29 14:43:30;;;;;;;5.60;5.20;;;;;;;;;;5074049;28;20417;-68
2022/04/29 14:45:56;;;;;;;5.53;4.90;;;;;;;;;;5073835;28;20479;-66
2022/04/29 14:48:22;;;;;;;5.33;4.83;;;;;;;;;;5056027;28;20409;-68
2022/04/29 14:50:48;;;;;;;6.30;5.80;;;;;;;;;;5073868;28;20413;-69
2022/04/29 14:53:14;;;;;;;7.00;5.50;;;;;;;;;;5074062;28;20427;-67
2022/04/29 14:55:40;;;;;;;6.10;5.47;;;;;;;;;;5073751;28;20730;-64
2022/04/29 14:58:06;;;;;;;8.93;4.70;;;;;;;;;;5073801;28;20540;-66
2022/04/29 15:00:32;;;;;;;5.93;5.40;;;;;;;;;;5073838;28;20931;-66
2022/04/29 15:02:58;;;;;;;5.70;5.20;;;;;;;;;;5073905;28;20400;-64
2022/04/29 15:05:24;;;;;;;4.87;4.57;;;;;;;;;;5073269;28;20794;-68
2022/04/29 15:07:51;;;;;;;5.70;5.20;;;;;;;;;;5055507;28;20437;-69